EGNV Airport Information

Runway Information
Runway 05 Length 7516 ft width 151 ft
Elevation 115 ft Threshold 0 ft Heading 48
Runway 23 Length 7516 ft Width 151 ft
Elevation 116 ft Threshold 0 ft Heading 228
Airport Frequencies
Type ATIS Name ATIS Frequency 132.375 MHZ
Type RADAR Name Durham Rad Frequency 118.85 MHZ
Type TWR Name Durham Tow Frequency 119.8 MHZ
Airport Navaids
Airport Weather Information & NOTAM
ADDS - METARS form results

(0258 UTC 30 November 2021)
Data provider http://aviationweather.gov/metar/data/
 
Forecast for: AMD
Text: TAF AMD EGNV 292032Z 2920/2921 29015KT 9999 SCT030
Forecast period: 2000 to 2100 UTC 29 November 2021
Forecast type: FROM: standard forecast or significant change
Winds: from the WNW (290 degrees) at 17 MPH (15 knots; 7.7 m/s)
Visibility: 6 or more miles (10+ km)
Ceiling: at least 12,000 feet AGL
Clouds: scattered clouds at 3000 feet AGL
Weather: no significant weather forecast for this period
Text: PROB30
Forecast period: 2000 to 2100 UTC 29 November 2021
Forecast type: TEMPORARY: The following changes expected for less than half the time period
Visibility: 4 miles (7 km)
Ceiling: 900 feet AGL
Clouds: broken clouds at 900 feet AGL
Weather: -RA  (light rain)